Mysuno — DIBN — position and weather

sailwx.info

Track history (hours):
 
Tides and Currents Weather Stations Pressure Air Temp Water Temp Dewpoint Dewpoint Depression Visibility Wind Speed Wind Dir Waves Ship Positions

Mysuno

Last reported at 2018-Jun-11 14:57 UTC. Time now 2018-Jun-21 17:54 UTC.
Position N 39°34' E 002°38'.
Warning: this ship's position is 10 days out of date.

Length 16 m.

Type: Sailing vessel. MMSI: 211584280.

Date/timePositionNaut miles runAvg speedWind from/ knotsBaromVisibWave heightAir tempDewpointWater temp
2018-Jun-11 14:57N 39°34' E 002°38'0 0.0
2018-Jun-11 14:30N 39°34' E 002°38'0 0.0
2018-Jun-11 14:00N 39°34' E 002°38'0 0.0
2018-Jun-11 13:30N 39°34' E 002°38'0 0.0
2018-Jun-11 13:00N 39°34' E 002°38'0 0.0
2018-Jun-11 12:30N 39°34' E 002°38'0 0.0
2018-Jun-11 12:00N 39°34' E 002°38'0 0.0
2018-Jun-11 11:30N 39°34' E 002°38'0 0.0
2018-Jun-11 11:00N 39°34' E 002°38'0 0.0
2018-Jun-11 10:30N 39°34' E 002°38'0 0.0
2018-Jun-11 10:00N 39°34' E 002°38'0 0.0
2018-Jun-11 09:30N 39°34' E 002°38'0 0.0
2018-Jun-11 09:00N 39°34' E 002°38'0 0.0
2018-Jun-11 08:30N 39°34' E 002°38'0 0.0
2018-Jun-11 07:57N 39°34' E 002°38'0 0.0
2018-Jun-11 07:21N 39°34' E 002°38'0 0.0
2018-Jun-11 07:00N 39°34' E 002°38'0 0.0
2018-Jun-11 06:30N 39°34' E 002°38'0 0.0
2018-Jun-11 06:00N 39°34' E 002°38'0 0.0
2018-Jun-11 05:30N 39°34' E 002°38'0 0.0
2018-Jun-11 05:00N 39°34' E 002°38'0 0.0
2018-Jun-11 04:30N 39°34' E 002°38'0 0.0
2018-Jun-11 04:00N 39°34' E 002°38'0 0.0
2018-Jun-11 03:30N 39°34' E 002°38'0 0.0
2018-Jun-11 03:00N 39°34' E 002°38'0 0.0
2018-Jun-11 02:30N 39°34' E 002°38'0 0.0
2018-Jun-11 02:00N 39°34' E 002°38'0 0.0
2018-Jun-11 01:27N 39°34' E 002°38'0 0.0
2018-Jun-11 01:00N 39°34' E 002°38'0 0.0
2018-Jun-11 00:30N 39°34' E 002°38'0 0.0
2018-Jun-11 00:00N 39°34' E 002°38'0 0.0
2018-Jun-10 23:30N 39°34' E 002°38'0 0.0
2018-Jun-10 23:00N 39°34' E 002°38'0 0.0
2018-Jun-10 22:30N 39°34' E 002°38'0 0.0
2018-Jun-10 22:00N 39°34' E 002°38'0 0.0
2018-Jun-10 21:30N 39°34' E 002°38'0 0.0
2018-Jun-10 21:00N 39°34' E 002°38'0 0.0
2018-Jun-10 20:30N 39°34' E 002°38'0 0.0
2018-Jun-10 20:00N 39°34' E 002°38'0 0.0
2018-Jun-10 19:21N 39°34' E 002°38'0 0.0
2018-Jun-10 19:00N 39°34' E 002°38'0 0.0
2018-Jun-10 18:30N 39°34' E 002°38'0 0.0
2018-Jun-10 18:00N 39°34' E 002°38'0 0.0
2018-Jun-10 17:30N 39°34' E 002°38'0 0.0
2018-Jun-10 16:57N 39°34' E 002°38'0 0.0
2018-Jun-10 16:30N 39°34' E 002°38'0 0.0
2018-Jun-10 16:00N 39°34' E 002°38'0 0.0
2018-Jun-10 15:30N 39°34' E 002°38'0 0.0
2018-Jun-10 15:00N 39°34' E 002°38'0 0.0
2018-Jun-10 14:30N 39°34' E 002°38'3 2.7
2018-Jun-10 13:30N 39°32' E 002°37'3 6.2
2018-Jun-10 13:00N 39°29' E 002°34'3 0.1
2018-Jun-08 14:28N 39°27' E 002°31'1 0.5
2018-Jun-08 11:58N 39°28' E 002°31'  
2018-Jun-04 21:55N 39°34' E 002°38'0 0.0
2018-Jun-04 21:28N 39°34' E 002°38'0 0.0
2018-Jun-04 20:58N 39°34' E 002°38'0 0.0
2018-Jun-04 20:28N 39°34' E 002°38'0 0.0
2018-Jun-04 19:58N 39°34' E 002°38'0 0.0
2018-Jun-04 19:28N 39°34' E 002°38'0 0.0
2018-Jun-04 18:58N 39°34' E 002°38'0 0.0
2018-Jun-04 18:28N 39°34' E 002°38'0 0.0
2018-Jun-04 17:58N 39°34' E 002°38'1 1.7
2018-Jun-04 17:30N 39°33' E 002°38'2 4.8
2018-Jun-04 17:00N 39°32' E 002°36'3 5.2
2018-Jun-04 16:29N 39°31' E 002°33'0 0.1
2018-Jun-04 15:55N 39°31' E 002°33'0 0.0
2018-Jun-04 15:28N 39°31' E 002°33'0 0.0
2018-Jun-04 14:58N 39°31' E 002°33'0 0.0
2018-Jun-04 14:28N 39°31' E 002°33'0 0.0
2018-Jun-04 13:58N 39°31' E 002°33'0 0.0
2018-Jun-04 13:28N 39°31' E 002°33'0 0.0
2018-Jun-04 12:58N 39°31' E 002°33'0 0.6
2018-Jun-04 12:28N 39°31' E 002°33'2 4.6
2018-Jun-04 11:58N 39°32' E 002°36'2 3.5
2018-Jun-04 11:30N 39°33' E 002°38'1 2.8
2018-Jun-04 11:00N 39°34' E 002°38'0 0.0
2018-Jun-04 10:30N 39°34' E 002°38'0 0.0
2018-Jun-04 10:00N 39°34' E 002°38'0 0.0
2018-Jun-04 09:30N 39°34' E 002°38'0 0.0
2018-Jun-04 09:00N 39°34' E 002°38'0 0.0
2018-Jun-04 08:30N 39°34' E 002°38'0 0.0
2018-Jun-04 08:00N 39°34' E 002°38'0 0.0
2018-Jun-04 07:30N 39°34' E 002°38'0 0.0
2018-Jun-04 07:00N 39°34' E 002°38'0 0.0
2018-Jun-04 06:30N 39°34' E 002°38'0 0.0
2018-Jun-04 05:54N 39°34' E 002°38'0 0.0
2018-Jun-04 05:30N 39°34' E 002°38'0 0.0
2018-Jun-04 05:00N 39°34' E 002°38'0 0.0
2018-Jun-04 04:30N 39°34' E 002°38'0 0.0
2018-Jun-04 04:00N 39°34' E 002°38'0 0.0
2018-Jun-04 03:30N 39°34' E 002°38'0 0.0
2018-Jun-04 03:00N 39°34' E 002°38'0 0.0
2018-Jun-04 02:30N 39°34' E 002°38'0 0.0
2018-Jun-04 02:00N 39°34' E 002°38'0 0.0
2018-Jun-04 01:30N 39°34' E 002°38'0 0.0
2018-Jun-04 01:00N 39°34' E 002°38'0 0.0
2018-Jun-04 00:30N 39°34' E 002°38'0 0.0
2018-Jun-04 00:00N 39°34' E 002°38'0 0.0
2018-Jun-03 23:30N 39°34' E 002°38'0 0.0
2018-Jun-03 23:00N 39°34' E 002°38'0 0.0
2018-Jun-03 22:30N 39°34' E 002°38'0 0.0
2018-Jun-03 22:00N 39°34' E 002°38'0 0.0
2018-Jun-03 21:30N 39°34' E 002°38'0 0.0
2018-Jun-03 21:00N 39°34' E 002°38'0 0.0
2018-Jun-03 20:30N 39°34' E 002°38'0 0.0
2018-Jun-03 20:00N 39°34' E 002°38'0 0.0
2018-Jun-03 19:30N 39°34' E 002°38'0 0.0
2018-Jun-03 19:00N 39°34' E 002°38'0 0.0
2018-Jun-03 18:30N 39°34' E 002°38'0 0.0
2018-Jun-03 18:00N 39°34' E 002°38'0 0.0
2018-Jun-03 17:27N 39°34' E 002°38'0 0.0
2018-Jun-03 17:00N 39°34' E 002°38'0 0.0
2018-Jun-03 16:30N 39°34' E 002°38'0 0.0
2018-Jun-03 16:00N 39°34' E 002°38'0 0.0
2018-Jun-03 15:30N 39°34' E 002°38'0 0.0
2018-Jun-03 15:00N 39°34' E 002°38'0 0.0
2018-Jun-03 14:30N 39°34' E 002°38'0 0.0
2018-Jun-03 14:00N 39°34' E 002°38'0 0.0
2018-Jun-03 13:30N 39°34' E 002°38'0 0.0
2018-Jun-03 13:00N 39°34' E 002°38'0 0.0
2018-Jun-03 12:30N 39°34' E 002°38'0 0.0
2018-Jun-03 12:00N 39°34' E 002°38'0 0.0
2018-Jun-03 11:30N 39°34' E 002°38'0 0.0
2018-Jun-03 11:00N 39°34' E 002°38'0 0.0
2018-Jun-03 09:45N 39°34' E 002°38'0 0.0
2018-Jun-03 09:30N 39°34' E 002°38'0 0.0
2018-Jun-03 09:00N 39°34' E 002°38'0 0.0
2018-Jun-03 08:30N 39°34' E 002°38'0 0.0
2018-Jun-03 07:54N 39°34' E 002°38'0 0.0
2018-Jun-03 07:30N 39°34' E 002°38'0 0.0
2018-Jun-03 07:00N 39°34' E 002°38'0 0.0
2018-Jun-03 06:30N 39°34' E 002°38'0 0.0
2018-Jun-03 06:00N 39°34' E 002°38'0 0.0
2018-Jun-03 05:30N 39°34' E 002°38'0 0.0
2018-Jun-03 05:00N 39°34' E 002°38'0 0.0
2018-Jun-03 04:30N 39°34' E 002°38'0 0.0
2018-Jun-03 04:00N 39°34' E 002°38'0 0.0
2018-Jun-03 03:30N 39°34' E 002°38'0 0.0
2018-Jun-03 03:00N 39°34' E 002°38'0 0.0
2018-Jun-03 02:30N 39°34' E 002°38'0 0.0
2018-Jun-03 02:00N 39°34' E 002°38'0 0.0
2018-Jun-03 01:30N 39°34' E 002°38'0 0.0
2018-Jun-03 01:00N 39°34' E 002°38'0 0.0
2018-Jun-03 00:30N 39°34' E 002°38'0 0.0
2018-Jun-03 00:00N 39°34' E 002°38'0 0.0
2018-Jun-02 23:30N 39°34' E 002°38'0 0.0
2018-Jun-02 23:00N 39°34' E 002°38'0 0.0
2018-Jun-02 22:30N 39°34' E 002°38'0 0.0
2018-Jun-02 22:00N 39°34' E 002°38'0 0.0
2018-Jun-02 21:30N 39°34' E 002°38'0 0.0
2018-Jun-02 21:00N 39°34' E 002°38'0 0.0
2018-Jun-02 20:30N 39°34' E 002°38'0 0.0
2018-Jun-02 20:00N 39°34' E 002°38'0 0.0
2018-Jun-02 19:30N 39°34' E 002°38'0 0.0
2018-Jun-02 19:00N 39°34' E 002°38'0 0.0
2018-Jun-02 18:30N 39°34' E 002°38'0 0.0
2018-Jun-02 18:00N 39°34' E 002°38'0 0.0
2018-Jun-02 17:30N 39°34' E 002°38'0 0.0
2018-Jun-02 17:00N 39°34' E 002°38'0 0.0
2018-Jun-02 16:30N 39°34' E 002°38'0 0.0
2018-Jun-02 16:00N 39°34' E 002°38'0 0.0
2018-Jun-02 15:30N 39°34' E 002°38'0 0.0
2018-Jun-02 15:00N 39°34' E 002°38'0 0.0
2018-Jun-02 14:30N 39°34' E 002°38'0 0.0
2018-Jun-02 14:00N 39°34' E 002°38'0 0.0
2018-Jun-02 13:30N 39°34' E 002°38'0 0.0
2018-Jun-02 13:00N 39°34' E 002°38'0 0.0
2018-Jun-02 12:30N 39°34' E 002°38'0 0.0
2018-Jun-02 12:00N 39°34' E 002°38'0 0.0
2018-Jun-02 11:30N 39°34' E 002°38'0 0.0
2018-Jun-02 11:00N 39°34' E 002°38'0 0.0
2018-Jun-02 10:30N 39°34' E 002°38'0 0.0
2018-Jun-02 10:00N 39°34' E 002°38'0 0.0
2018-Jun-02 09:30N 39°34' E 002°38'0 0.0
2018-Jun-02 09:00N 39°34' E 002°38'0 0.0
2018-Jun-02 08:30N 39°34' E 002°38'0 0.0
2018-Jun-02 08:00N 39°34' E 002°38'0 0.0
2018-Jun-02 07:30N 39°34' E 002°38'0 0.0
2018-Jun-02 06:54N 39°34' E 002°38'0 0.0
2018-Jun-02 06:30N 39°34' E 002°38'0 0.0
2018-Jun-02 06:00N 39°34' E 002°38'0 0.0
2018-Jun-02 05:30N 39°34' E 002°38'0 0.0
2018-Jun-02 05:00N 39°34' E 002°38'0 0.0
2018-Jun-02 04:30N 39°34' E 002°38'0 0.0
2018-Jun-02 04:00N 39°34' E 002°38'0 0.0
2018-Jun-02 03:30N 39°34' E 002°38'0 0.0
2018-Jun-02 03:00N 39°34' E 002°38'0 0.0
2018-Jun-02 02:30N 39°34' E 002°38'0 0.0
2018-Jun-02 02:00N 39°34' E 002°38'0 0.0
2018-Jun-02 01:30N 39°34' E 002°38'0 0.0
2018-Jun-02 01:00N 39°34' E 002°38'0 0.0
2018-Jun-02 00:30N 39°34' E 002°38'0 0.0
2018-Jun-02 00:00N 39°34' E 002°38'0 0.0
2018-Jun-01 23:30N 39°34' E 002°38'0 0.0
2018-Jun-01 23:00N 39°34' E 002°38'0 0.0
2018-Jun-01 22:30N 39°34' E 002°38'0 0.0
2018-Jun-01 22:00N 39°34' E 002°38'0 0.0
2018-Jun-01 21:30N 39°34' E 002°38'0 0.0
2018-Jun-01 21:00N 39°34' E 002°38'0 0.0
2018-Jun-01 20:30N 39°34' E 002°38'0 0.0
2018-Jun-01 20:00N 39°34' E 002°38'0 0.0
2018-Jun-01 19:30N 39°34' E 002°38'0 0.0
2018-Jun-01 19:00N 39°34' E 002°38'0 0.0
2018-Jun-01 18:27N 39°34' E 002°38'0 0.0
2018-Jun-01 17:57N 39°34' E 002°38'0 0.0
2018-Jun-01 17:30N 39°34' E 002°38'0 0.0
2018-Jun-01 17:00N 39°34' E 002°38'0 0.0
2018-Jun-01 16:30N 39°34' E 002°38'0 0.0
2018-Jun-01 16:00N 39°34' E 002°38'0 0.0
2018-Jun-01 15:30N 39°34' E 002°38'0 0.0
2018-Jun-01 15:00N 39°34' E 002°38'  
Track history (hours):
 
Tides and Currents Weather Stations Pressure Air Temp Water Temp Dewpoint Dewpoint Depression Visibility Wind Speed Wind Dir Waves Ship Positions

Mysuno

Last reported at 2018-Jun-11 14:57 UTC. Time now 2018-Jun-21 17:54 UTC.
Position N 39°34' E 002°38'.
Warning: this ship's position is 10 days out of date.

Length 16 m.

Type: Sailing vessel. MMSI: 211584280.

Date/timePositionNaut miles runAvg speedWind from/ knotsBaromVisibWave heightAir tempDewpointWater temp
2018-Jun-11 14:57N 39°34' E 002°38'0 0.0
2018-Jun-11 14:30N 39°34' E 002°38'0 0.0
2018-Jun-11 14:00N 39°34' E 002°38'0 0.0
2018-Jun-11 13:30N 39°34' E 002°38'0 0.0
2018-Jun-11 13:00N 39°34' E 002°38'0 0.0
2018-Jun-11 12:30N 39°34' E 002°38'0 0.0
2018-Jun-11 12:00N 39°34' E 002°38'0 0.0
2018-Jun-11 11:30N 39°34' E 002°38'0 0.0
2018-Jun-11 11:00N 39°34' E 002°38'0 0.0
2018-Jun-11 10:30N 39°34' E 002°38'0 0.0
2018-Jun-11 10:00N 39°34' E 002°38'0 0.0
2018-Jun-11 09:30N 39°34' E 002°38'0 0.0
2018-Jun-11 09:00N 39°34' E 002°38'0 0.0
2018-Jun-11 08:30N 39°34' E 002°38'0 0.0
2018-Jun-11 07:57N 39°34' E 002°38'0 0.0
2018-Jun-11 07:21N 39°34' E 002°38'0 0.0
2018-Jun-11 07:00N 39°34' E 002°38'0 0.0
2018-Jun-11 06:30N 39°34' E 002°38'0 0.0
2018-Jun-11 06:00N 39°34' E 002°38'0 0.0
2018-Jun-11 05:30N 39°34' E 002°38'0 0.0
2018-Jun-11 05:00N 39°34' E 002°38'0 0.0
2018-Jun-11 04:30N 39°34' E 002°38'0 0.0
2018-Jun-11 04:00N 39°34' E 002°38'0 0.0
2018-Jun-11 03:30N 39°34' E 002°38'0 0.0
2018-Jun-11 03:00N 39°34' E 002°38'0 0.0
2018-Jun-11 02:30N 39°34' E 002°38'0 0.0
2018-Jun-11 02:00N 39°34' E 002°38'0 0.0
2018-Jun-11 01:27N 39°34' E 002°38'0 0.0
2018-Jun-11 01:00N 39°34' E 002°38'0 0.0
2018-Jun-11 00:30N 39°34' E 002°38'0 0.0
2018-Jun-11 00:00N 39°34' E 002°38'0 0.0
2018-Jun-10 23:30N 39°34' E 002°38'0 0.0
2018-Jun-10 23:00N 39°34' E 002°38'0 0.0
2018-Jun-10 22:30N 39°34' E 002°38'0 0.0
2018-Jun-10 22:00N 39°34' E 002°38'0 0.0
2018-Jun-10 21:30N 39°34' E 002°38'0 0.0
2018-Jun-10 21:00N 39°34' E 002°38'0 0.0
2018-Jun-10 20:30N 39°34' E 002°38'0 0.0
2018-Jun-10 20:00N 39°34' E 002°38'0 0.0
2018-Jun-10 19:21N 39°34' E 002°38'0 0.0
2018-Jun-10 19:00N 39°34' E 002°38'0 0.0
2018-Jun-10 18:30N 39°34' E 002°38'0 0.0
2018-Jun-10 18:00N 39°34' E 002°38'0 0.0
2018-Jun-10 17:30N 39°34' E 002°38'0 0.0
2018-Jun-10 16:57N 39°34' E 002°38'0 0.0
2018-Jun-10 16:30N 39°34' E 002°38'0 0.0
2018-Jun-10 16:00N 39°34' E 002°38'0 0.0
2018-Jun-10 15:30N 39°34' E 002°38'0 0.0
2018-Jun-10 15:00N 39°34' E 002°38'0 0.0
2018-Jun-10 14:30N 39°34' E 002°38'3 2.7
2018-Jun-10 13:30N 39°32' E 002°37'3 6.2
2018-Jun-10 13:00N 39°29' E 002°34'3 0.1
2018-Jun-08 14:28N 39°27' E 002°31'1 0.5
2018-Jun-08 11:58N 39°28' E 002°31'  
2018-Jun-04 21:55N 39°34' E 002°38'0 0.0
2018-Jun-04 21:28N 39°34' E 002°38'0 0.0
2018-Jun-04 20:58N 39°34' E 002°38'0 0.0
2018-Jun-04 20:28N 39°34' E 002°38'0 0.0
2018-Jun-04 19:58N 39°34' E 002°38'0 0.0
2018-Jun-04 19:28N 39°34' E 002°38'0 0.0
2018-Jun-04 18:58N 39°34' E 002°38'0 0.0
2018-Jun-04 18:28N 39°34' E 002°38'0 0.0
2018-Jun-04 17:58N 39°34' E 002°38'1 1.7
2018-Jun-04 17:30N 39°33' E 002°38'2 4.8
2018-Jun-04 17:00N 39°32' E 002°36'3 5.2
2018-Jun-04 16:29N 39°31' E 002°33'0 0.1
2018-Jun-04 15:55N 39°31' E 002°33'0 0.0
2018-Jun-04 15:28N 39°31' E 002°33'0 0.0
2018-Jun-04 14:58N 39°31' E 002°33'0 0.0
2018-Jun-04 14:28N 39°31' E 002°33'0 0.0
2018-Jun-04 13:58N 39°31' E 002°33'0 0.0
2018-Jun-04 13:28N 39°31' E 002°33'0 0.0
2018-Jun-04 12:58N 39°31' E 002°33'0 0.6
2018-Jun-04 12:28N 39°31' E 002°33'2 4.6
2018-Jun-04 11:58N 39°32' E 002°36'2 3.5
2018-Jun-04 11:30N 39°33' E 002°38'1 2.8
2018-Jun-04 11:00N 39°34' E 002°38'0 0.0
2018-Jun-04 10:30N 39°34' E 002°38'0 0.0
2018-Jun-04 10:00N 39°34' E 002°38'0 0.0
2018-Jun-04 09:30N 39°34' E 002°38'0 0.0
2018-Jun-04 09:00N 39°34' E 002°38'0 0.0
2018-Jun-04 08:30N 39°34' E 002°38'0 0.0
2018-Jun-04 08:00N 39°34' E 002°38'0 0.0
2018-Jun-04 07:30N 39°34' E 002°38'0 0.0
2018-Jun-04 07:00N 39°34' E 002°38'0 0.0
2018-Jun-04 06:30N 39°34' E 002°38'0 0.0
2018-Jun-04 05:54N 39°34' E 002°38'0 0.0
2018-Jun-04 05:30N 39°34' E 002°38'0 0.0
2018-Jun-04 05:00N 39°34' E 002°38'0 0.0
2018-Jun-04 04:30N 39°34' E 002°38'0 0.0
2018-Jun-04 04:00N 39°34' E 002°38'0 0.0
2018-Jun-04 03:30N 39°34' E 002°38'0 0.0
2018-Jun-04 03:00N 39°34' E 002°38'0 0.0
2018-Jun-04 02:30N 39°34' E 002°38'0 0.0
2018-Jun-04 02:00N 39°34' E 002°38'0 0.0
2018-Jun-04 01:30N 39°34' E 002°38'0 0.0
2018-Jun-04 01:00N 39°34' E 002°38'0 0.0
2018-Jun-04 00:30N 39°34' E 002°38'0 0.0
2018-Jun-04 00:00N 39°34' E 002°38'0 0.0
2018-Jun-03 23:30N 39°34' E 002°38'0 0.0
2018-Jun-03 23:00N 39°34' E 002°38'0 0.0
2018-Jun-03 22:30N 39°34' E 002°38'0 0.0
2018-Jun-03 22:00N 39°34' E 002°38'0 0.0
2018-Jun-03 21:30N 39°34' E 002°38'0 0.0
2018-Jun-03 21:00N 39°34' E 002°38'0 0.0
2018-Jun-03 20:30N 39°34' E 002°38'0 0.0
2018-Jun-03 20:00N 39°34' E 002°38'0 0.0
2018-Jun-03 19:30N 39°34' E 002°38'0 0.0
2018-Jun-03 19:00N 39°34' E 002°38'0 0.0
2018-Jun-03 18:30N 39°34' E 002°38'0 0.0
2018-Jun-03 18:00N 39°34' E 002°38'0 0.0
2018-Jun-03 17:27N 39°34' E 002°38'0 0.0
2018-Jun-03 17:00N 39°34' E 002°38'0 0.0
2018-Jun-03 16:30N 39°34' E 002°38'0 0.0
2018-Jun-03 16:00N 39°34' E 002°38'0 0.0
2018-Jun-03 15:30N 39°34' E 002°38'0 0.0
2018-Jun-03 15:00N 39°34' E 002°38'0 0.0
2018-Jun-03 14:30N 39°34' E 002°38'0 0.0
2018-Jun-03 14:00N 39°34' E 002°38'0 0.0
2018-Jun-03 13:30N 39°34' E 002°38'0 0.0
2018-Jun-03 13:00N 39°34' E 002°38'0 0.0
2018-Jun-03 12:30N 39°34' E 002°38'0 0.0
2018-Jun-03 12:00N 39°34' E 002°38'0 0.0
2018-Jun-03 11:30N 39°34' E 002°38'0 0.0
2018-Jun-03 11:00N 39°34' E 002°38'0 0.0
2018-Jun-03 09:45N 39°34' E 002°38'0 0.0
2018-Jun-03 09:30N 39°34' E 002°38'0 0.0
2018-Jun-03 09:00N 39°34' E 002°38'0 0.0
2018-Jun-03 08:30N 39°34' E 002°38'0 0.0
2018-Jun-03 07:54N 39°34' E 002°38'0 0.0
2018-Jun-03 07:30N 39°34' E 002°38'0 0.0
2018-Jun-03 07:00N 39°34' E 002°38'0 0.0
2018-Jun-03 06:30N 39°34' E 002°38'0 0.0
2018-Jun-03 06:00N 39°34' E 002°38'0 0.0
2018-Jun-03 05:30N 39°34' E 002°38'0 0.0
2018-Jun-03 05:00N 39°34' E 002°38'0 0.0
2018-Jun-03 04:30N 39°34' E 002°38'0 0.0
2018-Jun-03 04:00N 39°34' E 002°38'0 0.0
2018-Jun-03 03:30N 39°34' E 002°38'0 0.0
2018-Jun-03 03:00N 39°34' E 002°38'0 0.0
2018-Jun-03 02:30N 39°34' E 002°38'0 0.0
2018-Jun-03 02:00N 39°34' E 002°38'0 0.0
2018-Jun-03 01:30N 39°34' E 002°38'0 0.0
2018-Jun-03 01:00N 39°34' E 002°38'0 0.0
2018-Jun-03 00:30N 39°34' E 002°38'0 0.0
2018-Jun-03 00:00N 39°34' E 002°38'0 0.0
2018-Jun-02 23:30N 39°34' E 002°38'0 0.0
2018-Jun-02 23:00N 39°34' E 002°38'0 0.0
2018-Jun-02 22:30N 39°34' E 002°38'0 0.0
2018-Jun-02 22:00N 39°34' E 002°38'0 0.0
2018-Jun-02 21:30N 39°34' E 002°38'0 0.0
2018-Jun-02 21:00N 39°34' E 002°38'0 0.0
2018-Jun-02 20:30N 39°34' E 002°38'0 0.0
2018-Jun-02 20:00N 39°34' E 002°38'0 0.0
2018-Jun-02 19:30N 39°34' E 002°38'0 0.0
2018-Jun-02 19:00N 39°34' E 002°38'0 0.0
2018-Jun-02 18:30N 39°34' E 002°38'0 0.0
2018-Jun-02 18:00N 39°34' E 002°38'0 0.0
2018-Jun-02 17:30N 39°34' E 002°38'0 0.0
2018-Jun-02 17:00N 39°34' E 002°38'0 0.0
2018-Jun-02 16:30N 39°34' E 002°38'0 0.0
2018-Jun-02 16:00N 39°34' E 002°38'0 0.0
2018-Jun-02 15:30N 39°34' E 002°38'0 0.0
2018-Jun-02 15:00N 39°34' E 002°38'0 0.0
2018-Jun-02 14:30N 39°34' E 002°38'0 0.0
2018-Jun-02 14:00N 39°34' E 002°38'0 0.0
2018-Jun-02 13:30N 39°34' E 002°38'0 0.0
2018-Jun-02 13:00N 39°34' E 002°38'0 0.0
2018-Jun-02 12:30N 39°34' E 002°38'0 0.0
2018-Jun-02 12:00N 39°34' E 002°38'0 0.0
2018-Jun-02 11:30N 39°34' E 002°38'0 0.0
2018-Jun-02 11:00N 39°34' E 002°38'0 0.0
2018-Jun-02 10:30N 39°34' E 002°38'0 0.0
2018-Jun-02 10:00N 39°34' E 002°38'0 0.0
2018-Jun-02 09:30N 39°34' E 002°38'0 0.0
2018-Jun-02 09:00N 39°34' E 002°38'0 0.0
2018-Jun-02 08:30N 39°34' E 002°38'0 0.0
2018-Jun-02 08:00N 39°34' E 002°38'0 0.0
2018-Jun-02 07:30N 39°34' E 002°38'0 0.0
2018-Jun-02 06:54N 39°34' E 002°38'0 0.0
2018-Jun-02 06:30N 39°34' E 002°38'0 0.0
2018-Jun-02 06:00N 39°34' E 002°38'0 0.0
2018-Jun-02 05:30N 39°34' E 002°38'0 0.0
2018-Jun-02 05:00N 39°34' E 002°38'0 0.0
2018-Jun-02 04:30N 39°34' E 002°38'0 0.0
2018-Jun-02 04:00N 39°34' E 002°38'0 0.0
2018-Jun-02 03:30N 39°34' E 002°38'0 0.0
2018-Jun-02 03:00N 39°34' E 002°38'0 0.0
2018-Jun-02 02:30N 39°34' E 002°38'0 0.0
2018-Jun-02 02:00N 39°34' E 002°38'0 0.0
2018-Jun-02 01:30N 39°34' E 002°38'0 0.0
2018-Jun-02 01:00N 39°34' E 002°38'0 0.0
2018-Jun-02 00:30N 39°34' E 002°38'0 0.0
2018-Jun-02 00:00N 39°34' E 002°38'0 0.0
2018-Jun-01 23:30N 39°34' E 002°38'0 0.0
2018-Jun-01 23:00N 39°34' E 002°38'0 0.0
2018-Jun-01 22:30N 39°34' E 002°38'0 0.0
2018-Jun-01 22:00N 39°34' E 002°38'0 0.0
2018-Jun-01 21:30N 39°34' E 002°38'0 0.0
2018-Jun-01 21:00N 39°34' E 002°38'0 0.0
2018-Jun-01 20:30N 39°34' E 002°38'0 0.0
2018-Jun-01 20:00N 39°34' E 002°38'0 0.0
2018-Jun-01 19:30N 39°34' E 002°38'0 0.0
2018-Jun-01 19:00N 39°34' E 002°38'0 0.0
2018-Jun-01 18:27N 39°34' E 002°38'0 0.0
2018-Jun-01 17:57N 39°34' E 002°38'0 0.0
2018-Jun-01 17:30N 39°34' E 002°38'0 0.0
2018-Jun-01 17:00N 39°34' E 002°38'0 0.0
2018-Jun-01 16:30N 39°34' E 002°38'0 0.0
2018-Jun-01 16:00N 39°34' E 002°38'0 0.0
2018-Jun-01 15:30N 39°34' E 002°38'0 0.0
2018-Jun-01 15:00N 39°34' E 002°38'  

Dump ship's entire track history